createdAt,value
2018-12-27T19:09:57.596Z,27.90
2018-12-27T19:12:34.514Z,23.73
2018-12-27T19:15:09.402Z,30.90
2018-12-27T19:17:46.735Z,25.70
2018-12-27T19:22:56.670Z,21.67
2018-12-27T19:27:09.464Z,49.43
2018-12-27T19:29:41.427Z,33.77
2018-12-27T19:34:45.720Z,37.03
2018-12-27T19:39:48.715Z,26.50
2018-12-27T19:47:22.431Z,22.73
2018-12-27T19:49:57.342Z,14.37
2018-12-27T19:52:30.142Z,17.63
2018-12-27T19:55:02.127Z,17.90
2018-12-27T20:01:43.440Z,9.27
2018-12-27T20:04:15.412Z,7.20
2018-12-27T20:06:47.351Z,20.33
2018-12-27T20:09:20.031Z,16.80
2018-12-27T20:11:52.066Z,4.30
2018-12-27T20:14:24.724Z,5.70
2018-12-27T20:19:28.798Z,4.97
2018-12-27T20:22:01.417Z,3.77
2018-12-27T20:24:34.043Z,3.53
2018-12-27T20:27:06.505Z,3.40
2018-12-27T20:29:38.460Z,2.30
2018-12-27T20:32:10.596Z,2.57
2018-12-27T20:34:42.963Z,1.70
2018-12-27T20:37:15.130Z,1.70
2018-12-27T20:39:47.150Z,1.80
2018-12-27T20:42:19.345Z,1.80
2018-12-27T20:44:51.301Z,1.50
2018-12-27T20:47:23.274Z,1.43
2018-12-27T20:49:55.315Z,3.67
2018-12-27T20:52:28.452Z,43.37
2018-12-27T20:55:01.275Z,49.50
2018-12-27T20:57:33.909Z,35.50
2018-12-27T21:00:06.395Z,83.83
2018-12-27T21:02:38.392Z,16.60
2018-12-27T21:05:10.903Z,7.43
2018-12-27T21:07:43.310Z,6.57
2018-12-27T21:10:16.410Z,4.63
2018-12-27T21:12:48.346Z,3.23
2018-12-27T21:15:20.696Z,3.67
2018-12-27T21:17:52.757Z,5.17
2018-12-27T21:20:25.085Z,3.57
2018-12-27T21:22:57.284Z,5.40
2018-12-27T21:25:29.714Z,3.83
2018-12-27T21:30:37.280Z,6.20
2018-12-27T21:35:27.528Z,3.77
2018-12-27T21:38:01.362Z,3.50
2018-12-27T21:40:33.140Z,4.53
2018-12-27T21:43:05.771Z,6.53
2018-12-27T21:45:37.550Z,3.80
2018-12-27T21:48:09.466Z,4.60
2018-12-27T21:50:41.533Z,3.43
2018-12-27T21:53:13.580Z,3.30
2018-12-27T21:55:45.490Z,4.27
2018-12-27T21:58:17.571Z,4.97
2018-12-27T22:00:49.532Z,4.23
2018-12-27T22:03:21.417Z,5.40
2018-12-27T22:05:53.447Z,3.40
2018-12-27T22:08:28.669Z,4.30
2018-12-27T22:10:59.043Z,11.37
2018-12-27T22:13:31.326Z,10.37
2018-12-27T22:16:03.274Z,10.47
2018-12-27T22:18:35.141Z,7.90
2018-12-27T22:21:07.160Z,6.40
2018-12-27T22:23:39.119Z,4.03
2018-12-27T22:26:11.292Z,5.00
2018-12-27T22:28:43.287Z,6.20
2018-12-27T22:31:15.301Z,5.37
2018-12-27T22:33:47.286Z,5.43
2018-12-27T22:36:19.331Z,8.40
2018-12-27T22:38:51.315Z,5.00
2018-12-27T22:41:23.369Z,7.50
2018-12-27T22:43:55.467Z,7.13
2018-12-27T22:46:27.345Z,6.30
2018-12-27T22:48:59.352Z,5.80
2018-12-27T22:51:31.351Z,4.90
2018-12-27T22:54:03.509Z,5.10
2018-12-27T22:56:35.521Z,4.47
2018-12-27T22:59:07.603Z,6.73
2018-12-27T23:01:40.123Z,10.60
2018-12-27T23:04:11.995Z,8.87
2018-12-27T23:06:44.124Z,6.57
2018-12-27T23:09:16.129Z,6.03
2018-12-27T23:11:48.171Z,7.37
2018-12-27T23:14:19.886Z,10.97
2018-12-27T23:16:52.068Z,13.50
2018-12-27T23:19:23.702Z,7.67
2018-12-27T23:24:28.036Z,5.27
2018-12-27T23:27:00.190Z,5.67
2018-12-27T23:29:32.113Z,6.87
2018-12-27T23:32:04.075Z,5.50
2018-12-27T23:34:36.082Z,6.03
2018-12-27T23:37:08.137Z,5.60
2018-12-27T23:39:40.060Z,5.80
2018-12-27T23:42:11.761Z,6.67
2018-12-27T23:47:15.614Z,4.67
2018-12-27T23:49:47.448Z,6.03
2018-12-27T23:52:19.475Z,7.40
2018-12-27T23:54:51.283Z,7.73
2018-12-27T23:57:23.167Z,12.30
2018-12-27T23:59:55.091Z,13.00
